sensor_id;sensor_type;location;lat;lon;timestamp;temperature;humidity
66102;HTU21D;52883;51.094;5.880;2023-07-20T00:00:06;16.01;118.99
66102;HTU21D;52883;51.094;5.880;2023-07-20T00:02:38;15.99;118.99
66102;HTU21D;52883;51.094;5.880;2023-07-20T00:05:04;16.04;118.99
66102;HTU21D;52883;51.094;5.880;2023-07-20T00:07:30;16.12;118.99
66102;HTU21D;52883;51.094;5.880;2023-07-20T00:09:55;16.16;118.99
66102;HTU21D;52883;51.094;5.880;2023-07-20T00:12:21;16.10;118.99
66102;HTU21D;52883;51.094;5.880;2023-07-20T00:14:46;15.98;118.99
66102;HTU21D;52883;51.094;5.880;2023-07-20T00:17:12;15.86;118.99
66102;HTU21D;52883;51.094;5.880;2023-07-20T00:19:37;15.69;118.99
66102;HTU21D;52883;51.094;5.880;2023-07-20T00:22:03;15.53;118.99
66102;HTU21D;52883;51.094;5.880;2023-07-20T00:24:30;15.38;118.99
66102;HTU21D;52883;51.094;5.880;2023-07-20T00:26:56;15.23;118.99
66102;HTU21D;52883;51.094;5.880;2023-07-20T00:29:21;15.13;118.99
66102;HTU21D;52883;51.094;5.880;2023-07-20T00:31:47;15.03;118.99
66102;HTU21D;52883;51.094;5.880;2023-07-20T00:34:13;14.95;118.99
66102;HTU21D;52883;51.094;5.880;2023-07-20T00:36:39;14.87;118.99
66102;HTU21D;52883;51.094;5.880;2023-07-20T00:39:05;14.81;118.99
66102;HTU21D;52883;51.094;5.880;2023-07-20T00:41:31;14.75;118.99
66102;HTU21D;52883;51.094;5.880;2023-07-20T00:43:58;14.68;118.99
66102;HTU21D;52883;51.094;5.880;2023-07-20T00:46:24;14.59;118.99
66102;HTU21D;52883;51.094;5.880;2023-07-20T00:48:51;14.52;118.99
66102;HTU21D;52883;51.094;5.880;2023-07-20T00:51:18;14.45;118.99
66102;HTU21D;52883;51.094;5.880;2023-07-20T00:53:45;14.39;118.99
66102;HTU21D;52883;51.094;5.880;2023-07-20T00:56:11;14.34;118.99
66102;HTU21D;52883;51.094;5.880;2023-07-20T00:58:37;14.30;118.99
66102;HTU21D;52883;51.094;5.880;2023-07-20T01:01:03;14.23;118.99
66102;HTU21D;52883;51.094;5.880;2023-07-20T01:03:28;14.19;118.99
66102;HTU21D;52883;51.094;5.880;2023-07-20T01:06:14;14.17;118.99
66102;HTU21D;52883;51.094;5.880;2023-07-20T01:11:54;14.20;118.99
66102;HTU21D;52883;51.094;5.880;2023-07-20T01:14:23;14.15;118.99
66102;HTU21D;52883;51.094;5.880;2023-07-20T01:16:51;14.15;118.99
66102;HTU21D;52883;51.094;5.880;2023-07-20T01:19:18;14.18;118.99
66102;HTU21D;52883;51.094;5.880;2023-07-20T01:22:03;14.25;118.99
66102;HTU21D;52883;51.094;5.880;2023-07-20T01:27:12;14.66;118.99
66102;HTU21D;52883;51.094;5.880;2023-07-20T01:32:47;15.04;118.99
66102;HTU21D;52883;51.094;5.880;2023-07-20T01:35:16;15.21;118.99
66102;HTU21D;52883;51.094;5.880;2023-07-20T01:37:46;15.32;118.99
66102;HTU21D;52883;51.094;5.880;2023-07-20T01:40:14;15.40;118.99
66102;HTU21D;52883;51.094;5.880;2023-07-20T01:42:45;15.36;118.99
66102;HTU21D;52883;51.094;5.880;2023-07-20T01:45:12;15.26;118.99
66102;HTU21D;52883;51.094;5.880;2023-07-20T01:47:38;15.18;118.99
66102;HTU21D;52883;51.094;5.880;2023-07-20T01:50:04;15.12;118.99
66102;HTU21D;52883;51.094;5.880;2023-07-20T01:52:32;15.06;118.99
66102;HTU21D;52883;51.094;5.880;2023-07-20T01:54:57;15.07;118.99
66102;HTU21D;52883;51.094;5.880;2023-07-20T01:57:23;15.09;118.99
66102;HTU21D;52883;51.094;5.880;2023-07-20T01:59:49;15.07;118.99
66102;HTU21D;52883;51.094;5.880;2023-07-20T02:02:14;15.04;118.99
66102;HTU21D;52883;51.094;5.880;2023-07-20T02:04:40;14.99;118.99
66102;HTU21D;52883;51.094;5.880;2023-07-20T02:07:05;14.97;118.99
66102;HTU21D;52883;51.094;5.880;2023-07-20T02:09:31;14.94;118.99
66102;HTU21D;52883;51.094;5.880;2023-07-20T02:11:57;14.91;118.99
66102;HTU21D;52883;51.094;5.880;2023-07-20T02:14:23;14.83;118.99
66102;HTU21D;52883;51.094;5.880;2023-07-20T02:16:48;14.74;118.99
66102;HTU21D;52883;51.094;5.880;2023-07-20T02:19:20;14.65;118.99
66102;HTU21D;52883;51.094;5.880;2023-07-20T02:21:46;14.57;118.99
66102;HTU21D;52883;51.094;5.880;2023-07-20T02:24:12;14.48;118.99
66102;HTU21D;52883;51.094;5.880;2023-07-20T02:26:38;14.39;118.99
66102;HTU21D;52883;51.094;5.880;2023-07-20T02:29:04;14.34;118.99
66102;HTU21D;52883;51.094;5.880;2023-07-20T02:31:33;14.32;118.99
66102;HTU21D;52883;51.094;5.880;2023-07-20T02:33:58;14.29;118.99
66102;HTU21D;52883;51.094;5.880;2023-07-20T02:36:24;14.28;118.99
66102;HTU21D;52883;51.094;5.880;2023-07-20T02:38:50;14.29;118.99
66102;HTU21D;52883;51.094;5.880;2023-07-20T02:41:15;14.29;118.99
66102;HTU21D;52883;51.094;5.880;2023-07-20T02:43:41;14.30;118.99
66102;HTU21D;52883;51.094;5.880;2023-07-20T02:46:07;14.37;118.99
66102;HTU21D;52883;51.094;5.880;2023-07-20T02:48:32;14.49;118.99
66102;HTU21D;52883;51.094;5.880;2023-07-20T02:50:58;14.62;118.99
66102;HTU21D;52883;51.094;5.880;2023-07-20T02:53:24;14.77;118.99
66102;HTU21D;52883;51.094;5.880;2023-07-20T02:55:49;14.93;118.99
66102;HTU21D;52883;51.094;5.880;2023-07-20T02:58:15;15.07;118.99
66102;HTU21D;52883;51.094;5.880;2023-07-20T03:00:42;15.18;118.99
66102;HTU21D;52883;51.094;5.880;2023-07-20T03:03:08;15.23;118.99
66102;HTU21D;52883;51.094;5.880;2023-07-20T03:05:35;15.23;118.99
66102;HTU21D;52883;51.094;5.880;2023-07-20T03:08:03;15.30;118.99
66102;HTU21D;52883;51.094;5.880;2023-07-20T03:10:32;15.40;118.99
66102;HTU21D;52883;51.094;5.880;2023-07-20T03:12:58;15.46;118.99
66102;HTU21D;52883;51.094;5.880;2023-07-20T03:15:24;15.51;118.99
66102;HTU21D;52883;51.094;5.880;2023-07-20T03:17:50;15.58;118.99
66102;HTU21D;52883;51.094;5.880;2023-07-20T03:20:17;15.65;118.99
66102;HTU21D;52883;51.094;5.880;2023-07-20T03:22:43;15.71;118.99
66102;HTU21D;52883;51.094;5.880;2023-07-20T03:25:09;15.77;118.99
66102;HTU21D;52883;51.094;5.880;2023-07-20T03:27:34;15.80;118.99
66102;HTU21D;52883;51.094;5.880;2023-07-20T03:30:01;15.78;118.99
66102;HTU21D;52883;51.094;5.880;2023-07-20T03:32:27;15.83;118.99
66102;HTU21D;52883;51.094;5.880;2023-07-20T03:34:53;15.88;118.99
66102;HTU21D;52883;51.094;5.880;2023-07-20T03:37:19;15.90;118.99
66102;HTU21D;52883;51.094;5.880;2023-07-20T03:39:44;15.91;118.99
66102;HTU21D;52883;51.094;5.880;2023-07-20T03:42:10;15.95;118.99
66102;HTU21D;52883;51.094;5.880;2023-07-20T03:44:35;15.98;118.99
66102;HTU21D;52883;51.094;5.880;2023-07-20T03:47:01;16.02;118.99
66102;HTU21D;52883;51.094;5.880;2023-07-20T03:49:28;16.05;118.99
66102;HTU21D;52883;51.094;5.880;2023-07-20T03:51:54;16.05;118.99
66102;HTU21D;52883;51.094;5.880;2023-07-20T03:54:21;16.04;118.99
66102;HTU21D;52883;51.094;5.880;2023-07-20T03:56:46;16.04;118.99
66102;HTU21D;52883;51.094;5.880;2023-07-20T03:59:12;16.06;118.99
66102;HTU21D;52883;51.094;5.880;2023-07-20T04:01:38;16.08;118.99
66102;HTU21D;52883;51.094;5.880;2023-07-20T04:04:07;16.12;118.99
66102;HTU21D;52883;51.094;5.880;2023-07-20T04:06:33;16.15;118.99
66102;HTU21D;52883;51.094;5.880;2023-07-20T04:08:59;16.18;118.99
66102;HTU21D;52883;51.094;5.880;2023-07-20T04:11:24;16.24;118.99
66102;HTU21D;52883;51.094;5.880;2023-07-20T04:13:50;16.25;118.99
66102;HTU21D;52883;51.094;5.880;2023-07-20T04:16:16;16.28;118.99
66102;HTU21D;52883;51.094;5.880;2023-07-20T04:18:42;16.34;118.99
66102;HTU21D;52883;51.094;5.880;2023-07-20T04:21:08;16.37;118.99
66102;HTU21D;52883;51.094;5.880;2023-07-20T04:23:34;16.36;118.99
66102;HTU21D;52883;51.094;5.880;2023-07-20T04:26:01;16.34;118.99
66102;HTU21D;52883;51.094;5.880;2023-07-20T04:28:27;16.33;118.99
66102;HTU21D;52883;51.094;5.880;2023-07-20T04:30:53;16.37;118.99
66102;HTU21D;52883;51.094;5.880;2023-07-20T04:33:19;16.41;118.99
66102;HTU21D;52883;51.094;5.880;2023-07-20T04:35:49;16.47;118.99
66102;HTU21D;52883;51.094;5.880;2023-07-20T04:38:18;16.52;118.99
66102;HTU21D;52883;51.094;5.880;2023-07-20T04:40:49;16.59;118.99
66102;HTU21D;52883;51.094;5.880;2023-07-20T04:43:16;16.72;118.99
66102;HTU21D;52883;51.094;5.880;2023-07-20T04:45:43;16.92;118.99
66102;HTU21D;52883;51.094;5.880;2023-07-20T04:48:11;17.25;118.99
66102;HTU21D;52883;51.094;5.880;2023-07-20T04:50:40;17.37;118.99
66102;HTU21D;52883;51.094;5.880;2023-07-20T04:53:06;17.26;118.99
66102;HTU21D;52883;51.094;5.880;2023-07-20T04:55:32;17.20;118.99
66102;HTU21D;52883;51.094;5.880;2023-07-20T04:58:00;17.18;118.99
66102;HTU21D;52883;51.094;5.880;2023-07-20T05:00:27;17.22;118.99
66102;HTU21D;52883;51.094;5.880;2023-07-20T05:02:52;17.29;118.99
66102;HTU21D;52883;51.094;5.880;2023-07-20T05:05:18;17.30;118.99
66102;HTU21D;52883;51.094;5.880;2023-07-20T05:07:44;17.28;118.99
66102;HTU21D;52883;51.094;5.880;2023-07-20T05:10:09;17.24;118.99
66102;HTU21D;52883;51.094;5.880;2023-07-20T05:12:35;17.20;118.99
66102;HTU21D;52883;51.094;5.880;2023-07-20T05:15:01;17.21;118.99
66102;HTU21D;52883;51.094;5.880;2023-07-20T05:17:26;17.22;118.99
66102;HTU21D;52883;51.094;5.880;2023-07-20T05:19:52;17.23;118.99
66102;HTU21D;52883;51.094;5.880;2023-07-20T05:22:17;17.25;118.99
66102;HTU21D;52883;51.094;5.880;2023-07-20T05:24:43;17.43;118.99
66102;HTU21D;52883;51.094;5.880;2023-07-20T05:27:09;17.63;118.99
66102;HTU21D;52883;51.094;5.880;2023-07-20T05:29:34;17.87;118.99
66102;HTU21D;52883;51.094;5.880;2023-07-20T05:32:00;18.18;118.99
66102;HTU21D;52883;51.094;5.880;2023-07-20T05:34:26;18.38;118.99
66102;HTU21D;52883;51.094;5.880;2023-07-20T05:36:51;18.50;118.99
66102;HTU21D;52883;51.094;5.880;2023-07-20T05:39:17;18.63;118.99
66102;HTU21D;52883;51.094;5.880;2023-07-20T05:41:43;18.78;118.99
66102;HTU21D;52883;51.094;5.880;2023-07-20T05:44:09;18.92;118.99
66102;HTU21D;52883;51.094;5.880;2023-07-20T05:46:34;19.09;118.99
66102;HTU21D;52883;51.094;5.880;2023-07-20T05:49:00;19.89;118.99
66102;HTU21D;52883;51.094;5.880;2023-07-20T05:51:27;21.06;118.99
66102;HTU21D;52883;51.094;5.880;2023-07-20T05:53:53;21.14;118.99
66102;HTU21D;52883;51.094;5.880;2023-07-20T05:56:18;21.39;118.99
66102;HTU21D;52883;51.094;5.880;2023-07-20T05:58:44;21.77;118.99
66102;HTU21D;52883;51.094;5.880;2023-07-20T06:01:10;21.87;118.99
66102;HTU21D;52883;51.094;5.880;2023-07-20T06:03:35;22.43;118.99
66102;HTU21D;52883;51.094;5.880;2023-07-20T06:06:03;23.16;118.99
66102;HTU21D;52883;51.094;5.880;2023-07-20T06:08:32;22.77;118.99
66102;HTU21D;52883;51.094;5.880;2023-07-20T06:10:57;22.20;118.99
66102;HTU21D;52883;51.094;5.880;2023-07-20T06:13:23;21.73;118.99
66102;HTU21D;52883;51.094;5.880;2023-07-20T06:15:49;21.25;118.99
66102;HTU21D;52883;51.094;5.880;2023-07-20T06:18:15;20.91;118.99
66102;HTU21D;52883;51.094;5.880;2023-07-20T06:20:41;20.60;118.99
66102;HTU21D;52883;51.094;5.880;2023-07-20T06:23:06;20.36;118.99
66102;HTU21D;52883;51.094;5.880;2023-07-20T06:25:32;20.21;118.99
66102;HTU21D;52883;51.094;5.880;2023-07-20T06:27:58;20.03;118.99
66102;HTU21D;52883;51.094;5.880;2023-07-20T06:30:24;19.75;118.99
66102;HTU21D;52883;51.094;5.880;2023-07-20T06:32:50;19.56;118.99
66102;HTU21D;52883;51.094;5.880;2023-07-20T06:35:16;19.53;118.99
66102;HTU21D;52883;51.094;5.880;2023-07-20T06:37:42;21.14;118.99
66102;HTU21D;52883;51.094;5.880;2023-07-20T06:40:08;23.42;118.99
66102;HTU21D;52883;51.094;5.880;2023-07-20T06:42:35;25.27;118.99
66102;HTU21D;52883;51.094;5.880;2023-07-20T06:45:01;26.97;118.99
66102;HTU21D;52883;51.094;5.880;2023-07-20T06:47:26;27.76;118.99
66102;HTU21D;52883;51.094;5.880;2023-07-20T06:49:52;27.07;118.99
66102;HTU21D;52883;51.094;5.880;2023-07-20T06:52:18;25.79;118.99
66102;HTU21D;52883;51.094;5.880;2023-07-20T06:54:43;24.53;118.99
66102;HTU21D;52883;51.094;5.880;2023-07-20T06:57:09;23.64;118.99
66102;HTU21D;52883;51.094;5.880;2023-07-20T06:59:35;22.90;118.99
66102;HTU21D;52883;51.094;5.880;2023-07-20T07:02:00;22.42;118.99
66102;HTU21D;52883;51.094;5.880;2023-07-20T07:04:26;23.44;118.99
66102;HTU21D;52883;51.094;5.880;2023-07-20T07:06:52;24.90;118.99
66102;HTU21D;52883;51.094;5.880;2023-07-20T07:09:18;26.20;118.99
66102;HTU21D;52883;51.094;5.880;2023-07-20T07:11:44;27.12;118.99
66102;HTU21D;52883;51.094;5.880;2023-07-20T07:14:11;27.89;118.25
66102;HTU21D;52883;51.094;5.880;2023-07-20T07:16:37;28.38;101.79
66102;HTU21D;52883;51.094;5.880;2023-07-20T07:19:02;28.84;89.73
66102;HTU21D;52883;51.094;5.880;2023-07-20T07:21:29;29.19;99.61
66102;HTU21D;52883;51.094;5.880;2023-07-20T07:23:55;29.88;93.88
66102;HTU21D;52883;51.094;5.880;2023-07-20T07:26:23;30.60;82.65
66102;HTU21D;52883;51.094;5.880;2023-07-20T07:28:49;31.29;74.19
66102;HTU21D;52883;51.094;5.880;2023-07-20T07:31:15;31.73;66.14
66102;HTU21D;52883;51.094;5.880;2023-07-20T07:33:41;32.04;68.06
66102;HTU21D;52883;51.094;5.880;2023-07-20T07:36:06;32.92;57.96
66102;HTU21D;52883;51.094;5.880;2023-07-20T07:38:32;33.27;55.87
66102;HTU21D;52883;51.094;5.880;2023-07-20T07:40:59;32.62;49.32
66102;HTU21D;52883;51.094;5.880;2023-07-20T07:43:25;31.06;59.26
66102;HTU21D;52883;51.094;5.880;2023-07-20T07:45:54;29.45;72.80
66102;HTU21D;52883;51.094;5.880;2023-07-20T07:48:19;28.31;85.16
66102;HTU21D;52883;51.094;5.880;2023-07-20T07:50:46;27.50;97.51
66102;HTU21D;52883;51.094;5.880;2023-07-20T07:53:12;26.92;104.32
66102;HTU21D;52883;51.094;5.880;2023-07-20T07:55:38;26.50;108.07
66102;HTU21D;52883;51.094;5.880;2023-07-20T07:58:03;27.95;96.71
66102;HTU21D;52883;51.094;5.880;2023-07-20T08:00:29;29.85;76.82
66102;HTU21D;52883;51.094;5.880;2023-07-20T08:02:55;31.38;54.08
66102;HTU21D;52883;51.094;5.880;2023-07-20T08:05:20;31.99;59.07
66102;HTU21D;52883;51.094;5.880;2023-07-20T08:07:46;32.25;52.42
66102;HTU21D;52883;51.094;5.880;2023-07-20T08:10:12;30.75;58.38
66102;HTU21D;52883;51.094;5.880;2023-07-20T08:12:37;29.38;66.07
66102;HTU21D;52883;51.094;5.880;2023-07-20T08:15:03;28.43;78.16
66102;HTU21D;52883;51.094;5.880;2023-07-20T08:17:29;28.52;86.67
66102;HTU21D;52883;51.094;5.880;2023-07-20T08:19:55;30.34;69.26
66102;HTU21D;52883;51.094;5.880;2023-07-20T08:22:20;31.49;52.99
66102;HTU21D;52883;51.094;5.880;2023-07-20T08:24:46;31.97;56.64
66102;HTU21D;52883;51.094;5.880;2023-07-20T08:27:12;32.43;46.81
66102;HTU21D;52883;51.094;5.880;2023-07-20T08:29:38;32.75;50.95
66102;HTU21D;52883;51.094;5.880;2023-07-20T08:32:04;32.99;49.80
66102;HTU21D;52883;51.094;5.880;2023-07-20T08:34:31;33.12;47.89
66102;HTU21D;52883;51.094;5.880;2023-07-20T08:36:57;33.06;49.41
66102;HTU21D;52883;51.094;5.880;2023-07-20T08:39:23;33.41;47.61
66102;HTU21D;52883;51.094;5.880;2023-07-20T08:41:49;33.74;46.63
66102;HTU21D;52883;51.094;5.880;2023-07-20T08:44:15;34.05;44.20
66102;HTU21D;52883;51.094;5.880;2023-07-20T08:46:42;34.39;44.35
66102;HTU21D;52883;51.094;5.880;2023-07-20T08:49:11;34.48;42.42
66102;HTU21D;52883;51.094;5.880;2023-07-20T08:51:37;34.86;28.42
66102;HTU21D;52883;51.094;5.880;2023-07-20T08:54:03;34.22;35.23
66102;HTU21D;52883;51.094;5.880;2023-07-20T08:56:31;32.66;41.52
66102;HTU21D;52883;51.094;5.880;2023-07-20T08:58:59;31.34;48.29
66102;HTU21D;52883;51.094;5.880;2023-07-20T09:01:27;30.40;53.59
66102;HTU21D;52883;51.094;5.880;2023-07-20T09:03:53;31.02;53.55
66102;HTU21D;52883;51.094;5.880;2023-07-20T09:06:19;32.17;40.89
66102;HTU21D;52883;51.094;5.880;2023-07-20T09:08:45;33.01;36.37
66102;HTU21D;52883;51.094;5.880;2023-07-20T09:11:12;33.51;34.55
66102;HTU21D;52883;51.094;5.880;2023-07-20T09:13:39;34.00;34.05
66102;HTU21D;52883;51.094;5.880;2023-07-20T09:16:04;34.69;33.83
66102;HTU21D;52883;51.094;5.880;2023-07-20T09:18:31;35.04;33.83
66102;HTU21D;52883;51.094;5.880;2023-07-20T09:21:01;35.34;32.14
66102;HTU21D;52883;51.094;5.880;2023-07-20T09:23:38;35.72;27.91
66102;HTU21D;52883;51.094;5.880;2023-07-20T09:26:11;35.86;22.87
66102;HTU21D;52883;51.094;5.880;2023-07-20T09:28:48;35.00;24.97
66102;HTU21D;52883;51.094;5.880;2023-07-20T09:31:19;33.81;27.13
66102;HTU21D;52883;51.094;5.880;2023-07-20T09:33:48;32.82;33.84
66102;HTU21D;52883;51.094;5.880;2023-07-20T09:36:14;31.89;34.05
66102;HTU21D;52883;51.094;5.880;2023-07-20T09:38:44;31.30;39.92
66102;HTU21D;52883;51.094;5.880;2023-07-20T09:41:14;31.82;40.41
66102;HTU21D;52883;51.094;5.880;2023-07-20T09:43:46;32.81;36.64
66102;HTU21D;52883;51.094;5.880;2023-07-20T09:46:12;33.63;34.79
66102;HTU21D;52883;51.094;5.880;2023-07-20T09:48:38;34.52;31.16
66102;HTU21D;52883;51.094;5.880;2023-07-20T09:51:06;35.15;26.23
66102;HTU21D;52883;51.094;5.880;2023-07-20T09:53:33;35.28;29.17
66102;HTU21D;52883;51.094;5.880;2023-07-20T09:56:00;35.42;28.87
66102;HTU21D;52883;51.094;5.880;2023-07-20T09:58:26;35.67;19.42
66102;HTU21D;52883;51.094;5.880;2023-07-20T10:00:57;35.13;28.08
66102;HTU21D;52883;51.094;5.880;2023-07-20T10:03:28;34.92;30.42
66102;HTU21D;52883;51.094;5.880;2023-07-20T10:06:08;35.22;25.10
66102;HTU21D;52883;51.094;5.880;2023-07-20T10:08:39;35.22;23.82
66102;HTU21D;52883;51.094;5.880;2023-07-20T10:11:08;35.26;21.40
66102;HTU21D;52883;51.094;5.880;2023-07-20T10:13:38;35.12;21.91
66102;HTU21D;52883;51.094;5.880;2023-07-20T10:16:10;35.19;26.86
66102;HTU21D;52883;51.094;5.880;2023-07-20T10:18:50;35.82;25.35
66102;HTU21D;52883;51.094;5.880;2023-07-20T10:21:19;35.83;19.43
66102;HTU21D;52883;51.094;5.880;2023-07-20T10:23:49;35.23;25.31
66102;HTU21D;52883;51.094;5.880;2023-07-20T10:26:14;34.12;27.49
66102;HTU21D;52883;51.094;5.880;2023-07-20T10:28:41;33.68;29.68
66102;HTU21D;52883;51.094;5.880;2023-07-20T10:31:09;33.35;26.35
66102;HTU21D;52883;51.094;5.880;2023-07-20T10:33:37;32.57;29.24
66102;HTU21D;52883;51.094;5.880;2023-07-20T10:36:04;31.93;30.51
66102;HTU21D;52883;51.094;5.880;2023-07-20T10:38:40;31.82;31.64
66102;HTU21D;52883;51.094;5.880;2023-07-20T10:41:16;32.18;35.81
66102;HTU21D;52883;51.094;5.880;2023-07-20T10:43:44;32.98;29.28
66102;HTU21D;52883;51.094;5.880;2023-07-20T10:46:11;33.12;28.40
66102;HTU21D;52883;51.094;5.880;2023-07-20T10:48:59;32.85;29.48
66102;HTU21D;52883;51.094;5.880;2023-07-20T10:51:24;33.13;28.21
66102;HTU21D;52883;51.094;5.880;2023-07-20T10:53:50;33.79;27.90
66102;HTU21D;52883;51.094;5.880;2023-07-20T10:56:22;34.45;23.14
66102;HTU21D;52883;51.094;5.880;2023-07-20T10:58:48;34.82;24.86
66102;HTU21D;52883;51.094;5.880;2023-07-20T11:01:17;35.25;23.19
66102;HTU21D;52883;51.094;5.880;2023-07-20T11:03:43;35.60;21.33
66102;HTU21D;52883;51.094;5.880;2023-07-20T11:09:03;35.29;22.59
66102;HTU21D;52883;51.094;5.880;2023-07-20T11:11:30;35.57;21.02
66102;HTU21D;52883;51.094;5.880;2023-07-20T11:13:58;35.93;20.95
66102;HTU21D;52883;51.094;5.880;2023-07-20T11:16:40;35.43;20.57
66102;HTU21D;52883;51.094;5.880;2023-07-20T11:19:14;34.69;21.05
66102;HTU21D;52883;51.094;5.880;2023-07-20T11:21:42;34.07;19.25
66102;HTU21D;52883;51.094;5.880;2023-07-20T11:24:08;33.86;22.51
66102;HTU21D;52883;51.094;5.880;2023-07-20T11:26:47;33.60;21.87
66102;HTU21D;52883;51.094;5.880;2023-07-20T11:29:13;33.38;22.98
66102;HTU21D;52883;51.094;5.880;2023-07-20T11:31:41;33.62;23.42
66102;HTU21D;52883;51.094;5.880;2023-07-20T11:34:13;33.95;23.59
66102;HTU21D;52883;51.094;5.880;2023-07-20T11:36:46;33.92;22.10
66102;HTU21D;52883;51.094;5.880;2023-07-20T11:39:17;33.43;23.95
66102;HTU21D;52883;51.094;5.880;2023-07-20T11:41:54;33.23;23.34
66102;HTU21D;52883;51.094;5.880;2023-07-20T11:44:26;32.73;23.26
66102;HTU21D;52883;51.094;5.880;2023-07-20T11:47:07;32.09;26.92
66102;HTU21D;52883;51.094;5.880;2023-07-20T11:49:36;32.14;29.98
66102;HTU21D;52883;51.094;5.880;2023-07-20T11:52:07;32.26;29.16
66102;HTU21D;52883;51.094;5.880;2023-07-20T11:54:34;32.37;30.60
66102;HTU21D;52883;51.094;5.880;2023-07-20T11:57:01;33.05;28.35
66102;HTU21D;52883;51.094;5.880;2023-07-20T11:59:27;33.11;26.51
66102;HTU21D;52883;51.094;5.880;2023-07-20T12:01:53;33.34;27.39
66102;HTU21D;52883;51.094;5.880;2023-07-20T12:04:19;33.85;23.01
66102;HTU21D;52883;51.094;5.880;2023-07-20T12:06:45;34.01;23.21
66102;HTU21D;52883;51.094;5.880;2023-07-20T12:09:16;34.32;22.21
66102;HTU21D;52883;51.094;5.880;2023-07-20T12:11:44;34.35;21.69
66102;HTU21D;52883;51.094;5.880;2023-07-20T12:14:10;34.53;20.97
66102;HTU21D;52883;51.094;5.880;2023-07-20T12:16:37;34.69;20.12
66102;HTU21D;52883;51.094;5.880;2023-07-20T12:19:08;34.74;19.83
66102;HTU21D;52883;51.094;5.880;2023-07-20T12:21:36;34.77;18.96
66102;HTU21D;52883;51.094;5.880;2023-07-20T12:24:06;34.55;19.18
66102;HTU21D;52883;51.094;5.880;2023-07-20T12:26:33;34.21;20.05
66102;HTU21D;52883;51.094;5.880;2023-07-20T12:28:59;34.02;20.10
66102;HTU21D;52883;51.094;5.880;2023-07-20T12:31:26;33.88;20.05
66102;HTU21D;52883;51.094;5.880;2023-07-20T12:33:53;33.75;20.57
66102;HTU21D;52883;51.094;5.880;2023-07-20T12:36:21;33.65;20.63
66102;HTU21D;52883;51.094;5.880;2023-07-20T12:38:46;33.52;20.35
66102;HTU21D;52883;51.094;5.880;2023-07-20T12:41:13;33.37;21.08
66102;HTU21D;52883;51.094;5.880;2023-07-20T12:43:40;33.18;21.79
66102;HTU21D;52883;51.094;5.880;2023-07-20T12:46:06;33.19;22.20
66102;HTU21D;52883;51.094;5.880;2023-07-20T12:48:32;33.23;22.14
66102;HTU21D;52883;51.094;5.880;2023-07-20T12:50:58;33.22;22.25
66102;HTU21D;52883;51.094;5.880;2023-07-20T12:53:24;33.22;21.87
66102;HTU21D;52883;51.094;5.880;2023-07-20T12:55:50;32.72;21.47
66102;HTU21D;52883;51.094;5.880;2023-07-20T12:58:15;32.43;22.84
66102;HTU21D;52883;51.094;5.880;2023-07-20T13:00:41;32.47;22.09
66102;HTU21D;52883;51.094;5.880;2023-07-20T13:03:07;32.39;22.67
66102;HTU21D;52883;51.094;5.880;2023-07-20T13:05:34;32.19;21.83
66102;HTU21D;52883;51.094;5.880;2023-07-20T13:08:01;32.12;24.38
66102;HTU21D;52883;51.094;5.880;2023-07-20T13:10:28;32.89;25.62
66102;HTU21D;52883;51.094;5.880;2023-07-20T13:12:54;33.63;22.05
66102;HTU21D;52883;51.094;5.880;2023-07-20T13:15:20;33.81;21.19
66102;HTU21D;52883;51.094;5.880;2023-07-20T13:17:46;33.60;18.53
66102;HTU21D;52883;51.094;5.880;2023-07-20T13:20:12;33.30;21.85
66102;HTU21D;52883;51.094;5.880;2023-07-20T13:22:38;33.32;21.55
66102;HTU21D;52883;51.094;5.880;2023-07-20T13:25:04;33.12;20.99
66102;HTU21D;52883;51.094;5.880;2023-07-20T13:27:30;33.04;21.05
66102;HTU21D;52883;51.094;5.880;2023-07-20T13:29:58;32.90;21.63
66102;HTU21D;52883;51.094;5.880;2023-07-20T13:32:24;32.79;22.05
66102;HTU21D;52883;51.094;5.880;2023-07-20T13:34:49;32.55;22.21
66102;HTU21D;52883;51.094;5.880;2023-07-20T13:37:15;32.27;22.87
66102;HTU21D;52883;51.094;5.880;2023-07-20T13:39:41;32.04;22.85
66102;HTU21D;52883;51.094;5.880;2023-07-20T13:42:07;31.71;23.39
66102;HTU21D;52883;51.094;5.880;2023-07-20T13:44:34;31.36;24.49
66102;HTU21D;52883;51.094;5.880;2023-07-20T13:47:01;31.61;25.78
66102;HTU21D;52883;51.094;5.880;2023-07-20T13:49:27;32.14;23.16
66102;HTU21D;52883;51.094;5.880;2023-07-20T13:51:53;32.25;22.14
66102;HTU21D;52883;51.094;5.880;2023-07-20T13:54:18;32.17;22.72
66102;HTU21D;52883;51.094;5.880;2023-07-20T13:56:44;32.25;22.70
66102;HTU21D;52883;51.094;5.880;2023-07-20T13:59:10;32.14;21.53
66102;HTU21D;52883;51.094;5.880;2023-07-20T14:01:35;31.90;23.20
66102;HTU21D;52883;51.094;5.880;2023-07-20T14:04:02;31.83;21.99
66102;HTU21D;52883;51.094;5.880;2023-07-20T14:06:30;31.68;22.59
66102;HTU21D;52883;51.094;5.880;2023-07-20T14:08:56;31.67;23.98
66102;HTU21D;52883;51.094;5.880;2023-07-20T14:11:23;31.97;23.02
66102;HTU21D;52883;51.094;5.880;2023-07-20T14:13:49;32.11;22.47
66102;HTU21D;52883;51.094;5.880;2023-07-20T14:16:15;32.14;21.15
66102;HTU21D;52883;51.094;5.880;2023-07-20T14:18:41;32.08;21.67
66102;HTU21D;52883;51.094;5.880;2023-07-20T14:21:06;31.87;21.82
66102;HTU21D;52883;51.094;5.880;2023-07-20T14:23:32;31.68;21.97
66102;HTU21D;52883;51.094;5.880;2023-07-20T14:25:58;31.43;23.24
66102;HTU21D;52883;51.094;5.880;2023-07-20T14:28:24;31.31;23.78
66102;HTU21D;52883;51.094;5.880;2023-07-20T14:30:50;31.23;23.60
66102;HTU21D;52883;51.094;5.880;2023-07-20T14:33:15;31.16;24.82
66102;HTU21D;52883;51.094;5.880;2023-07-20T14:35:42;31.49;25.58
66102;HTU21D;52883;51.094;5.880;2023-07-20T14:38:08;32.05;21.80
66102;HTU21D;52883;51.094;5.880;2023-07-20T14:40:33;32.55;23.53
66102;HTU21D;52883;51.094;5.880;2023-07-20T14:42:59;32.97;18.94
66102;HTU21D;52883;51.094;5.880;2023-07-20T14:45:28;32.67;20.90
66102;HTU21D;52883;51.094;5.880;2023-07-20T14:47:54;32.48;19.48
66102;HTU21D;52883;51.094;5.880;2023-07-20T14:50:20;32.28;20.08
66102;HTU21D;52883;51.094;5.880;2023-07-20T14:52:46;32.16;18.85
66102;HTU21D;52883;51.094;5.880;2023-07-20T14:55:13;32.11;18.38
66102;HTU21D;52883;51.094;5.880;2023-07-20T14:57:38;31.95;19.80
66102;HTU21D;52883;51.094;5.880;2023-07-20T15:00:05;31.96;18.68
66102;HTU21D;52883;51.094;5.880;2023-07-20T15:02:36;31.78;15.85
66102;HTU21D;52883;51.094;5.880;2023-07-20T15:05:09;31.44;19.39
66102;HTU21D;52883;51.094;5.880;2023-07-20T15:07:35;31.43;19.47
66102;HTU21D;52883;51.094;5.880;2023-07-20T15:10:01;31.29;19.18
66102;HTU21D;52883;51.094;5.880;2023-07-20T15:12:27;31.21;18.87
66102;HTU21D;52883;51.094;5.880;2023-07-20T15:17:31;30.79;18.29
66102;HTU21D;52883;51.094;5.880;2023-07-20T15:19:56;30.51;20.18
66102;HTU21D;52883;51.094;5.880;2023-07-20T15:22:22;30.35;20.15